DAL4547 MMAA-KLAX
Flight info
| Callsign | DAL4547 |
|---|---|
| Flight time | N/A |
| Altitude | 36000 |
| Route | MMAA/28 1652N09954W AGLON UT145 UPN UJ3 MZT UJ7 PPE J93 ASUTA AMMOR OLAAA2 |
| Aircraft | A20N/M-SDE2E3FGHIRWXY/LB1 |
Departure
| Time | N/A |
|---|---|
| Airport | General Juan N. Álvarez International Airport (MMAA) |
Arrival
| Time | 2026-05-06 04:19 |
|---|---|
| Airport | Los Angeles International Airport (KLAX) |
| Time | Latitude | Longitude | Altitude | Speed | Heading |
|---|---|---|---|---|---|
| 2026-05-06 03:40 | 32.66472 | -115.67601 | 36002 ft | 446 kts | 302° |
| 2026-05-06 03:40 | 32.66882 | -115.68376 | 36001 ft | 446 kts | 302° |
| 2026-05-06 03:40 | 32.70175 | -115.74612 | 35998 ft | 446 kts | 302° |
| 2026-05-06 03:41 | 32.73437 | -115.80799 | 36000 ft | 433 kts | 302° |
| 2026-05-06 03:41 | 32.75048 | -115.83859 | 35846 ft | 442 kts | 302° |
| 2026-05-06 03:41 | 32.76692 | -115.86982 | 35647 ft | 448 kts | 302° |
| 2026-05-06 03:42 | 32.78344 | -115.90125 | 35390 ft | 448 kts | 302° |
| 2026-05-06 03:42 | 32.79993 | -115.93264 | 35021 ft | 447 kts | 302° |
| 2026-05-06 03:42 | 32.81626 | -115.96404 | 34647 ft | 447 kts | 301° |
| 2026-05-06 03:42 | 32.83222 | -115.99577 | 34273 ft | 448 kts | 300° |
| 2026-05-06 03:43 | 32.84810 | -116.02773 | 33899 ft | 450 kts | 300° |
| 2026-05-06 03:43 | 32.86407 | -116.05985 | 33532 ft | 450 kts | 300° |
| 2026-05-06 03:43 | 32.88003 | -116.09188 | 33078 ft | 450 kts | 300° |
| 2026-05-06 03:43 | 32.89602 | -116.12392 | 32633 ft | 451 kts | 300° |
| 2026-05-06 03:44 | 32.91206 | -116.15605 | 32051 ft | 453 kts | 300° |
| 2026-05-06 03:44 | 32.92821 | -116.18841 | 31426 ft | 455 kts | 300° |
| 2026-05-06 03:44 | 32.94439 | -116.22082 | 30659 ft | 456 kts | 300° |
| 2026-05-06 03:44 | 32.96059 | -116.25333 | 29881 ft | 456 kts | 300° |
| 2026-05-06 03:45 | 32.97676 | -116.28579 | 29112 ft | 456 kts | 300° |
| 2026-05-06 03:45 | 32.99290 | -116.31824 | 28337 ft | 454 kts | 300° |
| 2026-05-06 03:45 | 33.00899 | -116.35060 | 27459 ft | 455 kts | 300° |
| 2026-05-06 03:45 | 33.02516 | -116.38316 | 26475 ft | 458 kts | 300° |
| 2026-05-06 03:46 | 33.04137 | -116.41590 | 25479 ft | 460 kts | 299° |
| 2026-05-06 03:46 | 33.05545 | -116.44984 | 25016 ft | 449 kts | 293° |
| 2026-05-06 03:46 | 33.06365 | -116.47217 | 24935 ft | 437 kts | 294° |
| 2026-05-06 03:46 | 33.07985 | -116.51528 | 24769 ft | 415 kts | 294° |
| 2026-05-06 03:47 | 33.08765 | -116.53592 | 24681 ft | 411 kts | 294° |
| 2026-05-06 03:47 | 33.09949 | -116.56733 | 24558 ft | 419 kts | 294° |
| 2026-05-06 03:47 | 33.11147 | -116.59926 | 24339 ft | 423 kts | 294° |
| 2026-05-06 03:47 | 33.12335 | -116.63115 | 23967 ft | 418 kts | 292° |
| 2026-05-06 03:48 | 33.13291 | -116.66355 | 23586 ft | 411 kts | 285° |
| 2026-05-06 03:48 | 33.13906 | -116.69661 | 23215 ft | 407 kts | 279° |
| 2026-05-06 03:48 | 33.14379 | -116.72988 | 22821 ft | 407 kts | 279° |
| 2026-05-06 03:48 | 33.14866 | -116.76311 | 22323 ft | 406 kts | 280° |
| 2026-05-06 03:49 | 33.15353 | -116.79612 | 21823 ft | 401 kts | 280° |
| 2026-05-06 03:49 | 33.15833 | -116.82868 | 21324 ft | 396 kts | 280° |
| 2026-05-06 03:49 | 33.16305 | -116.86090 | 20825 ft | 392 kts | 280° |
| 2026-05-06 03:49 | 33.16770 | -116.89272 | 20325 ft | 387 kts | 279° |
| 2026-05-06 03:50 | 33.17232 | -116.92440 | 19784 ft | 388 kts | 279° |
| 2026-05-06 03:50 | 33.17694 | -116.95619 | 18985 ft | 391 kts | 279° |
| 2026-05-06 03:50 | 33.18162 | -116.98845 | 17988 ft | 398 kts | 279° |
| 2026-05-06 03:50 | 33.18638 | -117.02127 | 16986 ft | 404 kts | 279° |
| 2026-05-06 03:51 | 33.19118 | -117.05449 | 15986 ft | 408 kts | 279° |
| 2026-05-06 03:51 | 33.19600 | -117.08795 | 14999 ft | 410 kts | 279° |
| 2026-05-06 03:51 | 33.20083 | -117.12144 | 14238 ft | 407 kts | 279° |
| 2026-05-06 03:51 | 33.20554 | -117.15426 | 13774 ft | 395 kts | 279° |
| 2026-05-06 03:52 | 33.21008 | -117.18588 | 13608 ft | 377 kts | 279° |
| 2026-05-06 03:52 | 33.21436 | -117.21584 | 13601 ft | 356 kts | 279° |
| 2026-05-06 03:52 | 33.21844 | -117.24435 | 13600 ft | 346 kts | 279° |
| 2026-05-06 03:52 | 33.22252 | -117.27294 | 13598 ft | 351 kts | 279° |
| 2026-05-06 03:53 | 33.22660 | -117.30165 | 13600 ft | 350 kts | 279° |
| 2026-05-06 03:53 | 33.23069 | -117.33026 | 13598 ft | 349 kts | 280° |
| 2026-05-06 03:53 | 33.23505 | -117.35878 | 13598 ft | 350 kts | 281° |
| 2026-05-06 03:53 | 33.23957 | -117.38733 | 13602 ft | 350 kts | 281° |
| 2026-05-06 03:54 | 33.24409 | -117.41584 | 13598 ft | 349 kts | 281° |
| 2026-05-06 03:54 | 33.24858 | -117.44435 | 13598 ft | 349 kts | 280° |
| 2026-05-06 03:54 | 33.25304 | -117.47287 | 13598 ft | 349 kts | 280° |
| 2026-05-06 03:54 | 33.25750 | -117.50141 | 13598 ft | 349 kts | 281° |
| 2026-05-06 03:55 | 33.26414 | -117.52932 | 13431 ft | 350 kts | 291° |
| 2026-05-06 03:55 | 33.27458 | -117.55552 | 13137 ft | 348 kts | 300° |
| 2026-05-06 03:55 | 33.28767 | -117.57975 | 12838 ft | 346 kts | 303° |
| 2026-05-06 03:55 | 33.30073 | -117.60374 | 12545 ft | 344 kts | 302° |
| 2026-05-06 03:56 | 33.31368 | -117.62772 | 12231 ft | 343 kts | 302° |
| 2026-05-06 03:56 | 33.32650 | -117.65156 | 11938 ft | 338 kts | 302° |
| 2026-05-06 03:56 | 33.33908 | -117.67497 | 11639 ft | 330 kts | 302° |
| 2026-05-06 03:56 | 33.35134 | -117.69780 | 11333 ft | 322 kts | 302° |
| 2026-05-06 03:57 | 33.36331 | -117.72010 | 11033 ft | 315 kts | 302° |
| 2026-05-06 03:57 | 33.37498 | -117.74185 | 10733 ft | 308 kts | 302° |
| 2026-05-06 03:57 | 33.38642 | -117.76318 | 10430 ft | 301 kts | 302° |
| 2026-05-06 03:57 | 33.39760 | -117.78403 | 10129 ft | 295 kts | 302° |
| 2026-05-06 03:58 | 33.40856 | -117.80449 | 9828 ft | 289 kts | 302° |
| 2026-05-06 03:58 | 33.41918 | -117.82431 | 9534 ft | 284 kts | 302° |
| 2026-05-06 03:58 | 33.42978 | -117.84412 | 9226 ft | 283 kts | 302° |
| 2026-05-06 03:58 | 33.44040 | -117.86399 | 8930 ft | 282 kts | 302° |
| 2026-05-06 03:59 | 33.45107 | -117.88394 | 8625 ft | 279 kts | 302° |
| 2026-05-06 03:59 | 33.46141 | -117.90329 | 8338 ft | 280 kts | 302° |
| 2026-05-06 03:59 | 33.47248 | -117.92236 | 8024 ft | 277 kts | 312° |
| 2026-05-06 03:59 | 33.48753 | -117.93661 | 7728 ft | 278 kts | 332° |
| 2026-05-06 04:00 | 33.50550 | -117.94514 | 7436 ft | 277 kts | 340° |
| 2026-05-06 04:00 | 33.52359 | -117.95287 | 7149 ft | 276 kts | 340° |
| 2026-05-06 04:00 | 33.54161 | -117.96064 | 7021 ft | 274 kts | 340° |
| 2026-05-06 04:00 | 33.55958 | -117.96843 | 6956 ft | 275 kts | 339° |
| 2026-05-06 04:01 | 33.57756 | -117.97625 | 6951 ft | 275 kts | 339° |
| 2026-05-06 04:01 | 33.59556 | -117.98409 | 6954 ft | 275 kts | 339° |
| 2026-05-06 04:01 | 33.61356 | -117.99193 | 6951 ft | 275 kts | 339° |
| 2026-05-06 04:01 | 33.63167 | -117.99932 | 6954 ft | 275 kts | 342° |
| 2026-05-06 04:02 | 33.64991 | -118.00591 | 6949 ft | 269 kts | 342° |
| 2026-05-06 04:02 | 33.66728 | -118.01223 | 6949 ft | 253 kts | 342° |
| 2026-05-06 04:02 | 33.68360 | -118.01819 | 6949 ft | 237 kts | 342° |
| 2026-05-06 04:02 | 33.69899 | -118.02382 | 6955 ft | 231 kts | 342° |
| 2026-05-06 04:03 | 33.71449 | -118.02951 | 6952 ft | 233 kts | 342° |
| 2026-05-06 04:03 | 33.72993 | -118.03516 | 6951 ft | 232 kts | 342° |
| 2026-05-06 04:03 | 33.74538 | -118.04082 | 6952 ft | 232 kts | 342° |
| 2026-05-06 04:03 | 33.76083 | -118.04648 | 6953 ft | 232 kts | 342° |
| 2026-05-06 04:04 | 33.77626 | -118.05213 | 6953 ft | 232 kts | 342° |
| 2026-05-06 04:04 | 33.79147 | -118.05853 | 6953 ft | 232 kts | 337° |
| 2026-05-06 04:04 | 33.80643 | -118.06580 | 6952 ft | 232 kts | 337° |
| 2026-05-06 04:04 | 33.82140 | -118.07301 | 6951 ft | 232 kts | 338° |
| 2026-05-06 04:05 | 33.83636 | -118.08019 | 6952 ft | 232 kts | 338° |
| 2026-05-06 04:05 | 33.85135 | -118.08738 | 6952 ft | 232 kts | 338° |
| 2026-05-06 04:05 | 33.86633 | -118.09456 | 6953 ft | 232 kts | 338° |
| 2026-05-06 04:05 | 33.88131 | -118.10176 | 6953 ft | 232 kts | 336° |
| 2026-05-06 04:06 | 33.89485 | -118.11199 | 6954 ft | 231 kts | 315° |
| 2026-05-06 04:06 | 33.90492 | -118.12697 | 6950 ft | 231 kts | 306° |
| 2026-05-06 04:06 | 33.91455 | -118.14246 | 6953 ft | 230 kts | 309° |
| 2026-05-06 04:06 | 33.92449 | -118.15754 | 7024 ft | 231 kts | 301° |
| 2026-05-06 04:07 | 33.93274 | -118.17489 | 6329 ft | 252 kts | 298° |
| 2026-05-06 04:07 | 33.94110 | -118.19374 | 5828 ft | 257 kts | 294° |
| 2026-05-06 04:07 | 33.94637 | -118.21436 | 5302 ft | 262 kts | 279° |
| 2026-05-06 04:07 | 33.94867 | -118.23673 | 4508 ft | 277 kts | 276° |
| 2026-05-06 04:08 | 33.94963 | -118.26046 | 3720 ft | 290 kts | 263° |
| 2026-05-06 04:08 | 33.94289 | -118.28282 | 3430 ft | 281 kts | 243° |
| 2026-05-06 04:08 | 33.93440 | -118.30291 | 3511 ft | 260 kts | 241° |
| 2026-05-06 04:08 | 33.92473 | -118.32085 | 3361 ft | 249 kts | 230° |
| 2026-05-06 04:09 | 33.91260 | -118.33554 | 3151 ft | 241 kts | 217° |
| 2026-05-06 04:09 | 33.90002 | -118.34798 | 3158 ft | 225 kts | 220° |
| 2026-05-06 04:09 | 33.88704 | -118.35747 | 3112 ft | 218 kts | 197° |
| 2026-05-06 04:09 | 33.87205 | -118.35832 | 3546 ft | 222 kts | 168° |
| 2026-05-06 04:10 | 33.85720 | -118.35279 | 4033 ft | 224 kts | 161° |
| 2026-05-06 04:10 | 33.84246 | -118.34644 | 4351 ft | 228 kts | 160° |
| 2026-05-06 04:10 | 33.82773 | -118.33951 | 4340 ft | 227 kts | 158° |
| 2026-05-06 04:10 | 33.81352 | -118.33148 | 4240 ft | 225 kts | 147° |
| 2026-05-06 04:11 | 33.80248 | -118.31824 | 4143 ft | 228 kts | 121° |
| 2026-05-06 04:11 | 33.79757 | -118.30038 | 4000 ft | 230 kts | 98° |
| 2026-05-06 04:11 | 33.79721 | -118.28119 | 3706 ft | 230 kts | 82° |
| 2026-05-06 04:11 | 33.80131 | -118.26310 | 3628 ft | 218 kts | 65° |
| 2026-05-06 04:12 | 33.80914 | -118.24711 | 3780 ft | 227 kts | 53° |
| 2026-05-06 04:12 | 33.81860 | -118.23212 | 3951 ft | 227 kts | 51° |
| 2026-05-06 04:12 | 33.82860 | -118.21748 | 3923 ft | 226 kts | 49° |
| 2026-05-06 04:12 | 33.83889 | -118.20328 | 3762 ft | 226 kts | 47° |
| 2026-05-06 04:13 | 33.84940 | -118.18931 | 3508 ft | 225 kts | 47° |
| 2026-05-06 04:13 | 33.85984 | -118.17541 | 3282 ft | 222 kts | 47° |
| 2026-05-06 04:13 | 33.87006 | -118.16149 | 3087 ft | 224 kts | 48° |
| 2026-05-06 04:13 | 33.88072 | -118.14796 | 2855 ft | 221 kts | 38° |
| 2026-05-06 04:14 | 33.89443 | -118.13995 | 2653 ft | 215 kts | 13° |
| 2026-05-06 04:14 | 33.90949 | -118.13705 | 2495 ft | 222 kts | 1° |
| 2026-05-06 04:14 | 33.92478 | -118.13852 | 2232 ft | 220 kts | 347° |
| 2026-05-06 04:14 | 33.93923 | -118.14337 | 2155 ft | 215 kts | 338° |
| 2026-05-06 04:15 | 33.95257 | -118.15171 | 2063 ft | 216 kts | 321° |
| 2026-05-06 04:15 | 33.96018 | -118.16640 | 2129 ft | 213 kts | 274° |
| 2026-05-06 04:15 | 33.95878 | -118.18444 | 2259 ft | 216 kts | 260° |
| 2026-05-06 04:15 | 33.95599 | -118.20195 | 2210 ft | 214 kts | 258° |
| 2026-05-06 04:16 | 33.95272 | -118.22097 | 2218 ft | 249 kts | 259° |
| 2026-05-06 04:16 | 33.94961 | -118.24265 | 2169 ft | 277 kts | 262° |
| 2026-05-06 04:16 | 33.94723 | -118.26446 | 1995 ft | 236 kts | 263° |
| 2026-05-06 04:16 | 33.94571 | -118.28163 | 1763 ft | 184 kts | 264° |
| 2026-05-06 04:17 | 33.94465 | -118.29606 | 1367 ft | 164 kts | 265° |
| 2026-05-06 04:17 | 33.94388 | -118.30894 | 1188 ft | 141 kts | 266° |
| 2026-05-06 04:17 | 33.94341 | -118.31988 | 1052 ft | 126 kts | 264° |
| 2026-05-06 04:17 | 33.94255 | -118.33050 | 784 ft | 128 kts | 264° |
| 2026-05-06 04:18 | 33.94148 | -118.34196 | 789 ft | 140 kts | 262° |
| 2026-05-06 04:18 | 33.94031 | -118.35346 | 570 ft | 135 kts | 263° |
| 2026-05-06 04:18 | 33.93926 | -118.36433 | 382 ft | 127 kts | 263° |
| 2026-05-06 04:18 | 33.93790 | -118.37661 | 266 ft | 158 kts | 263° |
| 2026-05-06 04:19 | 33.93678 | -118.38864 | 126 ft | 137 kts | 263° |
| 2026-05-06 04:19 | 33.93588 | -118.39780 | 125 ft | 72 kts | 263° |
| 2026-05-06 04:19 | 33.93566 | -118.40004 | 125 ft | 0 kts | 263° |
| 2026-05-06 04:19 | 33.93569 | -118.40069 | 121 ft | 0 kts | 298° |
| 2026-05-06 04:20 | 33.93574 | -118.40171 | 123 ft | 32 kts | 275° |
| 2026-05-06 04:20 | 33.93614 | -118.40324 | 123 ft | 0 kts | 294° |
| 2026-05-06 04:21 | 33.93623 | -118.40460 | 121 ft | 29 kts | 268° |
| 2026-05-06 04:21 | 33.93601 | -118.40636 | 125 ft | 28 kts | 263° |
| 2026-05-06 04:21 | 33.93595 | -118.40734 | 122 ft | 18 kts | 275° |
| 2026-05-06 04:21 | 33.93599 | -118.40779 | 124 ft | 0 kts | 275° |
| 2026-05-06 04:22 | 33.93600 | -118.40797 | 124 ft | 5 kts | 276° |
| 2026-05-06 04:22 | 33.93602 | -118.40809 | 125 ft | 0 kts | 279° |
| 2026-05-06 04:25 | 33.93603 | -118.40820 | 125 ft | 10 kts | 280° |
| 2026-05-06 04:25 | 33.93640 | -118.40892 | 122 ft | 12 kts | 328° |
| 2026-05-06 04:25 | 33.93667 | -118.40896 | 122 ft | 23 kts | 353° |
| 2026-05-06 04:25 | 33.93769 | -118.40912 | 124 ft | 0 kts | 352° |
| 2026-05-06 04:26 | 33.93825 | -118.40921 | 123 ft | 8 kts | 353° |
| 2026-05-06 04:26 | 33.93858 | -118.40917 | 122 ft | 0 kts | 36° |
| 2026-05-06 04:26 | 33.93909 | -118.40808 | 124 ft | 6 kts | 30° |
| 2026-05-06 04:26 | 33.93976 | -118.40820 | 121 ft | 0 kts | 22° |
| 2026-05-06 04:27 | 33.93993 | -118.40802 | 124 ft | 15 kts | 45° |
| 2026-05-06 04:27 | 33.94001 | -118.40781 | 122 ft | 9 kts | 71° |
| 2026-05-06 04:27 | 33.94005 | -118.40757 | 125 ft | 0 kts | 80° |